createdAt,value
2018-04-24T00:02:35.140Z,11.60
2018-04-24T00:05:37.729Z,9.37
2018-04-24T00:08:40.266Z,12.27
2018-04-24T00:11:42.788Z,8.20
2018-04-24T00:14:45.352Z,8.33
2018-04-24T00:17:49.073Z,7.47
2018-04-24T00:20:51.720Z,8.37
2018-04-24T00:23:54.297Z,9.83
2018-04-24T00:26:59.733Z,8.50
2018-04-24T00:30:04.341Z,9.97
2018-04-24T00:33:07.726Z,8.30
2018-04-24T00:36:10.512Z,10.27
2018-04-24T00:39:13.061Z,8.90
2018-04-24T00:42:16.277Z,8.20
2018-04-24T00:45:19.874Z,7.83
2018-04-24T00:48:23.335Z,9.27
2018-04-24T00:51:25.852Z,9.03
2018-04-24T00:54:28.522Z,10.20
2018-04-24T00:57:31.661Z,8.77
2018-04-24T01:00:34.196Z,11.37
2018-04-24T01:03:36.782Z,9.53
2018-04-24T01:06:39.357Z,10.47
2018-04-24T01:09:41.964Z,12.00
2018-04-24T01:12:44.576Z,8.60
2018-04-24T01:15:48.563Z,8.43
2018-04-24T01:18:51.127Z,9.70
2018-04-24T01:21:53.646Z,9.63
2018-04-24T01:24:56.182Z,12.37
2018-04-24T01:27:58.952Z,11.77
2018-04-24T01:31:02.968Z,9.60
2018-04-24T01:34:05.545Z,10.20
2018-04-24T01:37:08.061Z,11.30
2018-04-24T01:40:11.745Z,8.60
2018-04-24T01:43:16.229Z,10.03
2018-04-24T01:46:18.847Z,9.07
2018-04-24T01:49:21.363Z,8.43
2018-04-24T01:52:23.937Z,9.83
2018-04-24T01:55:26.649Z,11.13
2018-04-24T01:58:29.191Z,8.40
2018-04-24T02:01:31.770Z,7.87
2018-04-24T02:04:34.447Z,9.47
2018-04-24T02:07:36.928Z,8.23
2018-04-24T02:10:39.425Z,7.47
2018-04-24T02:13:41.931Z,6.83
2018-04-24T02:16:44.411Z,8.23
2018-04-24T02:19:46.935Z,10.77
2018-04-24T02:22:49.431Z,7.87
2018-04-24T02:25:51.977Z,9.10
2018-04-24T02:28:54.440Z,8.20
2018-04-24T02:31:56.931Z,9.53
2018-04-24T02:34:59.433Z,10.70
2018-04-24T02:38:01.953Z,11.87
2018-04-24T02:41:04.473Z,8.23
2018-04-24T02:44:06.972Z,7.80
2018-04-24T02:47:09.469Z,8.07
2018-04-24T02:50:12.066Z,12.23
2018-04-24T02:53:14.606Z,9.83
2018-04-24T02:56:17.115Z,11.53
2018-04-24T02:59:19.615Z,11.17
2018-04-24T03:02:22.172Z,9.73
2018-04-24T03:05:24.706Z,10.47
2018-04-24T03:08:29.855Z,9.30
2018-04-24T03:11:32.404Z,10.20
2018-04-24T03:14:34.915Z,9.17
2018-04-24T03:17:37.387Z,10.03
2018-04-24T03:20:40.928Z,8.73
2018-04-24T03:23:44.614Z,10.57
2018-04-24T03:26:49.457Z,9.77
2018-04-24T03:29:52.096Z,12.50
2018-04-24T03:32:55.919Z,9.33
2018-04-24T03:35:58.484Z,8.23
2018-04-24T03:39:01.061Z,9.97
2018-04-24T03:42:04.366Z,8.13
2018-04-24T03:45:06.944Z,8.23
2018-04-24T03:48:10.385Z,12.47
2018-04-24T03:51:12.910Z,11.10
2018-04-24T03:54:15.459Z,23.83
2018-04-24T03:57:19.176Z,26.20
2018-04-24T04:00:23.133Z,11.07
2018-04-24T04:03:25.653Z,12.17
2018-04-24T04:06:28.351Z,35.63
2018-04-24T04:09:30.861Z,33.83
2018-04-24T04:12:33.362Z,11.80
2018-04-24T04:15:35.901Z,14.07
2018-04-24T04:18:50.308Z,9.80
2018-04-24T04:22:04.545Z,10.20
2018-04-24T04:25:07.048Z,10.20
2018-04-24T04:28:10.149Z,9.63
2018-04-24T04:31:12.711Z,11.03
2018-04-24T04:34:15.319Z,8.90
2018-04-24T04:37:17.822Z,12.80
2018-04-24T04:40:20.340Z,11.17
2018-04-24T04:43:22.831Z,11.50
2018-04-24T04:46:25.319Z,11.73
2018-04-24T04:49:27.826Z,17.37
2018-04-24T04:52:30.351Z,17.13
2018-04-24T04:55:34.010Z,14.97
2018-04-24T04:58:36.577Z,15.03
2018-04-24T05:01:40.322Z,11.40
2018-04-24T05:04:42.820Z,13.50
2018-04-24T05:07:48.929Z,16.53
2018-04-24T05:10:51.448Z,12.00
2018-04-24T05:13:53.977Z,10.17
2018-04-24T05:16:56.469Z,9.97
2018-04-24T05:19:59.049Z,10.50
2018-04-24T05:23:01.564Z,8.20
2018-04-24T05:26:04.034Z,12.37
2018-04-24T05:29:06.563Z,15.63
2018-04-24T05:32:09.085Z,10.17
2018-04-24T05:35:12.098Z,9.97
2018-04-24T05:38:14.600Z,11.73
2018-04-24T05:41:17.145Z,10.40
2018-04-24T05:44:19.721Z,12.33
2018-04-24T05:47:22.371Z,13.87
2018-04-24T05:50:26.472Z,12.50
2018-04-24T05:53:28.984Z,11.33
2018-04-24T05:56:31.529Z,8.83
2018-04-24T05:59:34.026Z,10.70
2018-04-24T06:02:36.542Z,11.80
2018-04-24T06:05:39.140Z,11.30
2018-04-24T06:08:41.730Z,13.13
2018-04-24T06:11:44.289Z,14.90
2018-04-24T06:14:46.933Z,11.90
2018-04-24T06:17:49.444Z,8.57
2018-04-24T06:20:52.417Z,11.40
2018-04-24T06:23:54.948Z,15.37
2018-04-24T06:26:57.510Z,20.50
2018-04-24T06:30:00.102Z,11.80
2018-04-24T06:33:03.184Z,10.97
2018-04-24T06:36:05.964Z,12.07
2018-04-24T06:39:08.643Z,12.30
2018-04-24T06:42:11.211Z,15.67
2018-04-24T06:45:13.693Z,12.87
2018-04-24T06:48:16.234Z,11.97
2018-04-24T06:51:18.727Z,20.50
2018-04-24T06:54:21.232Z,9.50
2018-04-24T06:57:23.915Z,10.97
2018-04-24T07:00:26.612Z,11.83
2018-04-24T07:03:29.358Z,12.63
2018-04-24T07:06:31.964Z,13.33
2018-04-24T07:09:34.687Z,12.40
2018-04-24T07:12:37.996Z,13.13
2018-04-24T07:15:40.504Z,10.77
2018-04-24T07:18:42.986Z,8.70
2018-04-24T07:21:45.523Z,11.07
2018-04-24T07:24:48.000Z,8.60
2018-04-24T07:27:50.496Z,9.03
2018-04-24T07:30:53.915Z,11.97
2018-04-24T07:33:56.427Z,13.93
2018-04-24T07:36:59.808Z,13.33
2018-04-24T07:40:02.456Z,14.97
2018-04-24T07:43:05.039Z,16.30
2018-04-24T07:46:07.645Z,16.20
2018-04-24T07:49:10.172Z,18.77
2018-04-24T07:52:12.669Z,20.97
2018-04-24T07:55:15.194Z,22.40
2018-04-24T07:58:17.722Z,21.77
2018-04-24T08:01:20.250Z,18.17
2018-04-24T08:04:22.739Z,19.57
2018-04-24T08:07:25.505Z,21.83
2018-04-24T08:13:36.806Z,19.40
2018-04-24T08:16:39.366Z,22.20
2018-04-24T08:19:41.872Z,21.37
2018-04-24T08:22:45.168Z,20.00
2018-04-24T08:25:47.658Z,20.40
2018-04-24T08:28:50.145Z,23.10
2018-04-24T08:31:52.683Z,21.43
2018-04-24T08:34:56.081Z,23.27
2018-04-24T08:37:59.259Z,28.83
2018-04-24T08:41:01.831Z,21.70
2018-04-24T08:44:04.377Z,25.83
2018-04-24T08:47:07.045Z,22.13
2018-04-24T08:50:09.581Z,26.40
2018-04-24T08:53:12.225Z,25.23
2018-04-24T08:56:14.774Z,21.07
2018-04-24T08:59:17.259Z,20.40
2018-04-24T09:02:19.805Z,22.37
2018-04-24T09:05:22.312Z,18.23
2018-04-24T09:08:24.967Z,17.83
2018-04-24T09:11:27.479Z,17.93
2018-04-24T09:14:30.021Z,20.13
2018-04-24T09:17:32.506Z,20.20
2018-04-24T09:20:35.004Z,20.87
2018-04-24T09:23:37.512Z,17.17
2018-04-24T09:26:40.046Z,10.67
2018-04-24T09:29:42.866Z,11.73
2018-04-24T09:32:45.405Z,12.13
2018-04-24T09:35:47.918Z,10.17
2018-04-24T09:38:50.408Z,11.27
2018-04-24T09:41:52.957Z,10.17
2018-04-24T09:44:57.514Z,10.03
2018-04-24T09:48:00.038Z,8.93
2018-04-24T09:51:03.623Z,10.67
2018-04-24T09:54:06.163Z,8.70
2018-04-24T09:57:08.720Z,6.27
2018-04-24T10:00:11.262Z,6.27
2018-04-24T10:03:13.829Z,6.07
2018-04-24T10:06:16.324Z,10.80
2018-04-24T10:09:18.797Z,12.23
2018-04-24T10:12:21.321Z,10.53
2018-04-24T10:15:23.853Z,10.50
2018-04-24T10:18:26.366Z,10.53
2018-04-24T10:21:29.583Z,6.53
2018-04-24T10:24:32.696Z,11.80
2018-04-24T10:27:35.204Z,8.67
2018-04-24T10:30:37.746Z,13.33
2018-04-24T10:33:40.232Z,9.27
2018-04-24T10:36:42.740Z,14.20
2018-04-24T10:39:45.245Z,9.87
2018-04-24T10:42:47.767Z,8.33
2018-04-24T10:45:50.954Z,8.97
2018-04-24T10:48:53.470Z,11.70
2018-04-24T10:51:55.956Z,13.40
2018-04-24T10:54:58.511Z,10.43
2018-04-24T10:58:01.045Z,9.77
2018-04-24T11:01:04.451Z,12.03
2018-04-24T11:04:06.942Z,11.47
2018-04-24T11:07:09.436Z,8.63
2018-04-24T11:10:11.934Z,7.53
2018-04-24T11:13:14.540Z,7.73
2018-04-24T11:16:17.007Z,11.77
2018-04-24T11:19:20.643Z,10.47
2018-04-24T11:22:23.221Z,12.10
2018-04-24T11:25:25.781Z,11.37
2018-04-24T11:28:29.459Z,12.63
2018-04-24T11:31:32.564Z,10.23
2018-04-24T11:34:35.079Z,10.33
2018-04-24T11:37:37.659Z,9.80
2018-04-24T11:40:40.255Z,14.30
2018-04-24T11:43:42.789Z,24.70
2018-04-24T11:46:45.335Z,26.87
2018-04-24T11:49:47.834Z,24.17
2018-04-24T11:52:50.529Z,21.37
2018-04-24T11:55:53.057Z,11.93
2018-04-24T11:58:55.961Z,10.60
2018-04-24T12:01:58.510Z,11.13
2018-04-24T12:05:01.161Z,12.07
2018-04-24T12:08:03.728Z,11.20
2018-04-24T12:11:06.260Z,14.27
2018-04-24T12:14:08.790Z,15.10
2018-04-24T12:17:11.263Z,9.03
2018-04-24T12:20:13.776Z,9.67
2018-04-24T12:23:16.296Z,10.50
2018-04-24T12:26:18.785Z,16.30
2018-04-24T12:29:21.288Z,15.07
2018-04-24T12:32:23.895Z,12.27
2018-04-24T12:35:26.411Z,9.17
2018-04-24T12:38:29.051Z,13.03
2018-04-24T12:41:31.558Z,8.73
2018-04-24T12:44:34.287Z,10.73
2018-04-24T12:47:37.152Z,9.07
2018-04-24T12:50:39.661Z,10.27
2018-04-24T12:53:42.188Z,10.37
2018-04-24T12:56:45.378Z,6.47
2018-04-24T12:59:47.893Z,10.30
2018-04-24T13:02:50.413Z,8.30
2018-04-24T13:05:53.065Z,11.43
2018-04-24T13:08:55.564Z,5.83
2018-04-24T13:11:58.894Z,5.77
2018-04-24T13:15:01.458Z,8.97
2018-04-24T13:18:04.062Z,11.10
2018-04-24T13:21:06.560Z,10.73
2018-04-24T13:24:09.365Z,9.63
2018-04-24T13:27:11.970Z,9.90
2018-04-24T13:30:14.494Z,7.30
2018-04-24T13:33:17.032Z,7.23
2018-04-24T13:36:19.550Z,9.00
2018-04-24T13:39:22.089Z,11.50
2018-04-24T13:42:24.642Z,10.57
2018-04-24T13:45:27.128Z,6.57
2018-04-24T13:48:29.673Z,7.70
2018-04-24T13:51:32.237Z,7.97
2018-04-24T13:54:34.805Z,8.27
2018-04-24T13:57:37.290Z,9.13
2018-04-24T14:00:39.845Z,9.43
2018-04-24T14:03:42.579Z,9.40
2018-04-24T14:06:45.149Z,9.13
2018-04-24T14:09:47.854Z,9.57
2018-04-24T14:12:50.514Z,8.10
2018-04-24T14:15:53.060Z,8.10
2018-04-24T14:18:55.651Z,9.50
2018-04-24T14:21:58.179Z,8.67
2018-04-24T14:25:00.722Z,10.07
2018-04-24T14:28:03.277Z,7.60
2018-04-24T14:31:05.827Z,10.70
2018-04-24T14:34:08.452Z,13.93
2018-04-24T14:37:10.979Z,15.20
2018-04-24T14:40:13.624Z,11.37
2018-04-24T14:43:16.197Z,9.37
2018-04-24T14:46:18.786Z,9.57
2018-04-24T14:49:21.369Z,8.70
2018-04-24T14:52:24.652Z,8.97
2018-04-24T14:55:27.956Z,14.40
2018-04-24T14:58:30.437Z,8.77
2018-04-24T15:01:32.973Z,8.93
2018-04-24T15:04:35.516Z,8.60
2018-04-24T15:07:38.083Z,9.27
2018-04-24T15:10:40.807Z,8.50
2018-04-24T15:13:43.451Z,8.67
2018-04-24T15:16:46.567Z,8.83
2018-04-24T15:19:49.192Z,11.00
2018-04-24T15:22:52.703Z,10.60
2018-04-24T15:25:55.415Z,12.87
2018-04-24T15:28:58.070Z,9.63
2018-04-24T15:32:00.670Z,9.73
2018-04-24T15:35:03.365Z,9.73
2018-04-24T15:38:05.920Z,8.50
2018-04-24T15:41:08.482Z,12.87
2018-04-24T15:44:11.028Z,20.80
2018-04-24T15:47:13.689Z,13.23
2018-04-24T15:50:16.233Z,8.03
2018-04-24T15:53:18.977Z,12.70
2018-04-24T15:56:21.783Z,10.23
2018-04-24T15:59:24.394Z,11.33
2018-04-24T16:02:27.035Z,10.53
2018-04-24T16:05:29.592Z,8.93
2018-04-24T16:08:32.228Z,11.40
2018-04-24T16:11:34.815Z,9.13
2018-04-24T16:14:37.351Z,8.43
2018-04-24T16:17:40.069Z,8.03
2018-04-24T16:20:42.576Z,11.93
2018-04-24T16:23:45.546Z,11.00
2018-04-24T16:26:48.148Z,9.63
2018-04-24T16:29:50.795Z,10.33
2018-04-24T16:32:53.378Z,8.83
2018-04-24T16:35:55.920Z,11.37
2018-04-24T16:38:58.562Z,7.77
2018-04-24T16:42:01.258Z,11.40
2018-04-24T16:45:04.519Z,10.90
2018-04-24T16:48:07.097Z,9.53
2018-04-24T16:51:09.695Z,7.77
2018-04-24T16:54:12.359Z,7.90
2018-04-24T16:57:14.949Z,11.97
2018-04-24T17:00:17.520Z,8.27
2018-04-24T17:03:20.557Z,8.30
2018-04-24T17:06:23.286Z,7.63
2018-04-24T17:09:26.213Z,10.00
2018-04-24T17:12:28.777Z,7.37
2018-04-24T17:15:31.636Z,7.60
2018-04-24T17:18:34.741Z,7.20
2018-04-24T17:21:37.487Z,7.47
2018-04-24T17:24:40.089Z,7.47
2018-04-24T17:27:42.900Z,7.07
2018-04-24T17:30:45.553Z,7.73
2018-04-24T17:33:48.727Z,8.30
2018-04-24T17:36:51.709Z,10.13
2018-04-24T17:39:54.453Z,7.63
2018-04-24T17:42:57.187Z,9.93
2018-04-24T17:46:00.125Z,11.17
2018-04-24T17:49:02.897Z,6.87
2018-04-24T17:52:05.740Z,8.90
2018-04-24T17:55:08.427Z,8.40
2018-04-24T17:58:11.052Z,7.27
2018-04-24T18:01:14.043Z,7.97
2018-04-24T18:04:16.658Z,7.87
2018-04-24T18:07:19.368Z,8.13
2018-04-24T18:10:22.066Z,12.70
2018-04-24T18:13:24.911Z,7.83
2018-04-24T18:16:28.266Z,7.53
2018-04-24T18:19:30.883Z,7.20
2018-04-24T18:22:33.594Z,8.90
2018-04-24T18:25:36.956Z,9.47
2018-04-24T18:28:39.797Z,11.07
2018-04-24T18:31:42.427Z,8.10
2018-04-24T18:34:45.089Z,7.47
2018-04-24T18:37:47.919Z,8.03
2018-04-24T18:40:50.606Z,8.20
2018-04-24T18:43:53.313Z,7.63
2018-04-24T18:46:56.041Z,7.57
2018-04-24T18:50:00.088Z,10.07
2018-04-24T18:53:02.898Z,9.47
2018-04-24T18:56:05.622Z,8.00
2018-04-24T18:59:08.353Z,7.57
2018-04-24T19:02:11.096Z,14.30
2018-04-24T19:05:13.845Z,17.63
2018-04-24T19:08:16.529Z,7.97
2018-04-24T19:11:19.464Z,12.77
2018-04-24T19:14:25.610Z,8.13
2018-04-24T19:17:28.574Z,9.33
2018-04-24T19:20:31.284Z,8.03
2018-04-24T19:23:33.970Z,10.33
2018-04-24T19:26:36.671Z,9.50
2018-04-24T19:29:39.387Z,8.90
2018-04-24T19:32:42.331Z,9.00
2018-04-24T19:35:45.092Z,8.83
2018-04-24T19:38:58.712Z,13.20
2018-04-24T19:42:01.450Z,9.13
2018-04-24T19:45:04.135Z,12.00
2018-04-24T19:48:06.813Z,10.00
2018-04-24T19:51:09.588Z,9.97
2018-04-24T19:54:14.877Z,9.00
2018-04-24T19:57:19.729Z,8.97
2018-04-24T20:00:23.141Z,9.20
2018-04-24T20:03:28.747Z,13.40
2018-04-24T20:06:36.652Z,9.63
2018-04-24T20:09:40.970Z,9.63
2018-04-24T20:12:46.235Z,9.87
2018-04-24T20:15:51.317Z,9.47
2018-04-24T20:18:55.122Z,10.90
2018-04-24T20:21:58.814Z,11.50
2018-04-24T20:25:02.061Z,10.23
2018-04-24T20:28:05.602Z,9.57
2018-04-24T20:31:09.491Z,9.53
2018-04-24T20:34:12.372Z,9.10
2018-04-24T20:37:15.245Z,12.53
2018-04-24T20:40:18.835Z,8.80
2018-04-24T20:43:22.422Z,9.77
2018-04-24T20:46:26.956Z,11.07
2018-04-24T20:49:30.073Z,9.93
2018-04-24T20:52:33.443Z,12.23
2018-04-24T20:55:36.427Z,11.50
2018-04-24T20:58:39.421Z,10.17
2018-04-24T21:01:42.677Z,10.77
2018-04-24T21:04:45.356Z,14.80
2018-04-24T21:07:47.965Z,11.13
2018-04-24T21:10:50.565Z,13.70
2018-04-24T21:13:53.165Z,11.53
2018-04-24T21:16:55.667Z,11.57
2018-04-24T21:19:58.297Z,11.10
2018-04-24T21:23:00.823Z,11.67
2018-04-24T21:26:03.352Z,11.07
2018-04-24T21:29:05.979Z,11.37
2018-04-24T21:32:08.498Z,12.73
2018-04-24T21:35:11.109Z,19.90
2018-04-24T21:38:13.717Z,13.30
2018-04-24T21:41:16.219Z,11.67
2018-04-24T21:44:18.720Z,12.47
2018-04-24T21:47:21.286Z,14.00
2018-04-24T21:50:23.806Z,12.77
2018-04-24T21:53:26.372Z,12.17
2018-04-24T21:56:28.895Z,12.43
2018-04-24T21:59:31.394Z,12.30
2018-04-24T22:02:33.967Z,12.90
2018-04-24T22:05:36.534Z,15.80
2018-04-24T22:08:39.074Z,13.20
2018-04-24T22:11:41.596Z,13.50
2018-04-24T22:14:44.099Z,14.00
2018-04-24T22:17:46.586Z,12.37
2018-04-24T22:20:49.080Z,15.27
2018-04-24T22:23:51.609Z,11.53
2018-04-24T22:26:54.148Z,12.33
2018-04-24T22:29:56.647Z,12.37
2018-04-24T22:32:59.171Z,13.30
2018-04-24T22:36:01.658Z,12.27
2018-04-24T22:39:04.171Z,13.83
2018-04-24T22:42:06.711Z,14.27
2018-04-24T22:45:09.210Z,13.87
2018-04-24T22:48:11.728Z,12.63
2018-04-24T22:51:14.559Z,12.93
2018-04-24T22:54:17.079Z,14.70
2018-04-24T22:57:19.632Z,12.53
2018-04-24T23:00:22.117Z,12.57
2018-04-24T23:03:24.624Z,11.60
2018-04-24T23:06:27.111Z,12.80
2018-04-24T23:09:29.642Z,13.10
2018-04-24T23:12:43.846Z,15.10
2018-04-24T23:15:58.055Z,12.77
2018-04-24T23:19:12.215Z,12.90
2018-04-24T23:22:34.291Z,15.33
2018-04-24T23:25:36.818Z,14.13
2018-04-24T23:28:39.346Z,14.40
2018-04-24T23:31:41.880Z,15.57
2018-04-24T23:34:44.408Z,15.27
2018-04-24T23:37:46.907Z,14.60
2018-04-24T23:40:49.405Z,16.13
2018-04-24T23:43:51.927Z,15.50
2018-04-24T23:46:54.458Z,17.30
2018-04-24T23:49:56.935Z,16.57
2018-04-24T23:52:59.451Z,17.83
2018-04-24T23:56:01.935Z,16.13
2018-04-24T23:59:04.698Z,17.57
